sensor_id;sensor_type;location;lat;lon;timestamp;pressure;altitude;pressure_sealevel;temperature;humidity
11349;BME280;5729;43.570;27.826;2023-05-19T00:01:56;98917.78;;;14.91;100.00
11349;BME280;5729;43.570;27.826;2023-05-19T00:04:24;98910.41;;;14.92;100.00
11349;BME280;5729;43.570;27.826;2023-05-19T00:06:50;98912.38;;;14.84;100.00
11349;BME280;5729;43.570;27.826;2023-05-19T00:09:18;98910.41;;;14.70;100.00
11349;BME280;5729;43.570;27.826;2023-05-19T00:11:43;98911.97;;;14.68;100.00
11349;BME280;5729;43.570;27.826;2023-05-19T00:14:09;98917.41;;;14.64;100.00
11349;BME280;5729;43.570;27.826;2023-05-19T00:16:35;98906.97;;;14.66;100.00
11349;BME280;5729;43.570;27.826;2023-05-19T00:19:04;98918.94;;;14.69;100.00
11349;BME280;5729;43.570;27.826;2023-05-19T00:21:30;98917.78;;;14.70;100.00
11349;BME280;5729;43.570;27.826;2023-05-19T00:23:56;98910.03;;;14.65;100.00
11349;BME280;5729;43.570;27.826;2023-05-19T00:26:23;98922.84;;;14.64;100.00
11349;BME280;5729;43.570;27.826;2023-05-19T00:28:49;98922.03;;;14.60;100.00
11349;BME280;5729;43.570;27.826;2023-05-19T00:31:15;98920.13;;;14.71;100.00
11349;BME280;5729;43.570;27.826;2023-05-19T00:33:40;98918.56;;;14.74;100.00
11349;BME280;5729;43.570;27.826;2023-05-19T00:36:06;98920.88;;;14.72;100.00
11349;BME280;5729;43.570;27.826;2023-05-19T00:38:35;98922.44;;;14.69;100.00
11349;BME280;5729;43.570;27.826;2023-05-19T00:41:02;98922.06;;;14.74;100.00
11349;BME280;5729;43.570;27.826;2023-05-19T00:43:28;98927.88;;;14.73;100.00
11349;BME280;5729;43.570;27.826;2023-05-19T00:45:58;98906.56;;;14.64;100.00
11349;BME280;5729;43.570;27.826;2023-05-19T00:48:24;98936.00;;;14.69;100.00
11349;BME280;5729;43.570;27.826;2023-05-19T00:50:50;98925.94;;;14.56;100.00
11349;BME280;5729;43.570;27.826;2023-05-19T00:53:17;98922.81;;;14.61;100.00
11349;BME280;5729;43.570;27.826;2023-05-19T00:55:43;98938.34;;;14.64;100.00
11349;BME280;5729;43.570;27.826;2023-05-19T00:58:11;98932.50;;;14.62;100.00
11349;BME280;5729;43.570;27.826;2023-05-19T01:00:38;98922.41;;;14.48;100.00
11349;BME280;5729;43.570;27.826;2023-05-19T01:03:04;98931.34;;;14.48;100.00
11349;BME280;5729;43.570;27.826;2023-05-19T01:05:37;98919.28;;;14.32;100.00
11349;BME280;5729;43.570;27.826;2023-05-19T01:08:03;98927.41;;;14.28;100.00
11349;BME280;5729;43.570;27.826;2023-05-19T01:10:29;98930.13;;;14.32;100.00
11349;BME280;5729;43.570;27.826;2023-05-19T01:12:54;98924.72;;;14.32;100.00
11349;BME280;5729;43.570;27.826;2023-05-19T01:15:20;98935.13;;;14.19;100.00
11349;BME280;5729;43.570;27.826;2023-05-19T01:20:36;98928.13;;;14.07;100.00
11349;BME280;5729;43.570;27.826;2023-05-19T01:26:08;98938.97;;;14.14;100.00
11349;BME280;5729;43.570;27.826;2023-05-19T01:29:02;98935.50;;;14.14;100.00
11349;BME280;5729;43.570;27.826;2023-05-19T01:31:32;98941.66;;;14.11;100.00
11349;BME280;5729;43.570;27.826;2023-05-19T01:33:59;98944.78;;;14.09;100.00
11349;BME280;5729;43.570;27.826;2023-05-19T01:36:25;98935.44;;;14.00;100.00
11349;BME280;5729;43.570;27.826;2023-05-19T01:38:55;98948.59;;;14.01;100.00
11349;BME280;5729;43.570;27.826;2023-05-19T01:41:21;98946.69;;;13.98;100.00
11349;BME280;5729;43.570;27.826;2023-05-19T01:43:47;98942.03;;;13.95;100.00
11349;BME280;5729;43.570;27.826;2023-05-19T01:46:14;98939.34;;;13.99;100.00
11349;BME280;5729;43.570;27.826;2023-05-19T01:48:41;98943.16;;;13.91;100.00
11349;BME280;5729;43.570;27.826;2023-05-19T01:51:07;98940.44;;;13.87;100.00
11349;BME280;5729;43.570;27.826;2023-05-19T01:53:33;98943.53;;;13.86;100.00
11349;BME280;5729;43.570;27.826;2023-05-19T01:55:58;98938.88;;;13.82;100.00
11349;BME280;5729;43.570;27.826;2023-05-19T02:06:39;98943.47;;;13.71;100.00
11349;BME280;5729;43.570;27.826;2023-05-19T02:12:02;98961.63;;;13.67;100.00
11349;BME280;5729;43.570;27.826;2023-05-19T02:14:40;98967.06;;;13.71;100.00
11349;BME280;5729;43.570;27.826;2023-05-19T02:17:11;98967.81;;;13.68;100.00
11349;BME280;5729;43.570;27.826;2023-05-19T02:19:38;98969.34;;;13.62;100.00
11349;BME280;5729;43.570;27.826;2023-05-19T02:22:04;98967.44;;;13.69;100.00
11349;BME280;5729;43.570;27.826;2023-05-19T02:24:30;98962.72;;;13.52;100.00
11349;BME280;5729;43.570;27.826;2023-05-19T02:26:56;98973.19;;;13.61;100.00
11349;BME280;5729;43.570;27.826;2023-05-19T02:29:21;98973.56;;;13.59;100.00
11349;BME280;5729;43.570;27.826;2023-05-19T02:31:47;98976.28;;;13.59;100.00
11349;BME280;5729;43.570;27.826;2023-05-19T02:34:12;98969.38;;;13.65;100.00
11349;BME280;5729;43.570;27.826;2023-05-19T02:36:39;98974.00;;;13.65;100.00
11349;BME280;5729;43.570;27.826;2023-05-19T02:39:08;98972.44;;;13.67;100.00
11349;BME280;5729;43.570;27.826;2023-05-19T02:41:33;98976.28;;;13.59;100.00
11349;BME280;5729;43.570;27.826;2023-05-19T02:43:59;98979.81;;;13.63;100.00
11349;BME280;5729;43.570;27.826;2023-05-19T02:46:24;98983.66;;;13.62;100.00
11349;BME280;5729;43.570;27.826;2023-05-19T02:48:50;98989.09;;;13.69;100.00
11349;BME280;5729;43.570;27.826;2023-05-19T02:51:16;98994.91;;;13.71;100.00
11349;BME280;5729;43.570;27.826;2023-05-19T02:53:41;98994.91;;;13.71;100.00
11349;BME280;5729;43.570;27.826;2023-05-19T02:56:07;98993.41;;;13.74;100.00
11349;BME280;5729;43.570;27.826;2023-05-19T02:58:32;98989.53;;;13.75;100.00
11349;BME280;5729;43.570;27.826;2023-05-19T03:00:58;98999.59;;;13.78;100.00
11349;BME280;5729;43.570;27.826;2023-05-19T03:03:23;98988.81;;;13.85;100.00
11349;BME280;5729;43.570;27.826;2023-05-19T03:05:49;98988.38;;;13.79;100.00
11349;BME280;5729;43.570;27.826;2023-05-19T03:08:14;98986.44;;;13.76;100.00
11349;BME280;5729;43.570;27.826;2023-05-19T03:10:39;98990.34;;;13.82;100.00
11349;BME280;5729;43.570;27.826;2023-05-19T03:13:05;98987.63;;;13.82;100.00
11349;BME280;5729;43.570;27.826;2023-05-19T03:15:30;98991.47;;;13.78;100.00
11349;BME280;5729;43.570;27.826;2023-05-19T03:17:56;98998.50;;;13.86;100.00
11349;BME280;5729;43.570;27.826;2023-05-19T03:20:22;98989.16;;;13.80;100.00
11349;BME280;5729;43.570;27.826;2023-05-19T03:22:48;98998.91;;;13.88;100.00
11349;BME280;5729;43.570;27.826;2023-05-19T03:25:14;99001.97;;;13.90;100.00
11349;BME280;5729;43.570;27.826;2023-05-19T03:27:40;98988.41;;;13.83;100.00
11349;BME280;5729;43.570;27.826;2023-05-19T03:30:06;98996.19;;;13.88;100.00
11349;BME280;5729;43.570;27.826;2023-05-19T03:32:32;99006.25;;;13.91;100.00
11349;BME280;5729;43.570;27.826;2023-05-19T03:34:58;99006.25;;;13.91;100.00
11349;BME280;5729;43.570;27.826;2023-05-19T03:37:23;99006.25;;;13.91;100.00
11349;BME280;5729;43.570;27.826;2023-05-19T03:39:49;99017.50;;;14.00;100.00
11349;BME280;5729;43.570;27.826;2023-05-19T03:42:15;99008.22;;;13.98;100.00
11349;BME280;5729;43.570;27.826;2023-05-19T03:44:40;99021.72;;;13.91;100.00
11349;BME280;5729;43.570;27.826;2023-05-19T03:47:06;99019.81;;;13.95;100.00
11349;BME280;5729;43.570;27.826;2023-05-19T03:49:31;99026.03;;;14.02;100.00
11349;BME280;5729;43.570;27.826;2023-05-19T03:51:57;99031.06;;;13.97;100.00
11349;BME280;5729;43.570;27.826;2023-05-19T03:54:22;99037.28;;;14.04;100.00
11349;BME280;5729;43.570;27.826;2023-05-19T03:56:48;99036.13;;;14.05;100.00
11349;BME280;5729;43.570;27.826;2023-05-19T03:59:13;99035.00;;;14.10;100.00
11349;BME280;5729;43.570;27.826;2023-05-19T04:01:40;99032.66;;;14.08;100.00
11349;BME280;5729;43.570;27.826;2023-05-19T04:04:06;99030.75;;;14.16;100.00
11349;BME280;5729;43.570;27.826;2023-05-19T04:06:31;99036.59;;;14.22;100.00
11349;BME280;5729;43.570;27.826;2023-05-19T04:08:58;99021.78;;;14.05;100.00
11349;BME280;5729;43.570;27.826;2023-05-19T04:11:23;99036.16;;;14.16;100.00
11349;BME280;5729;43.570;27.826;2023-05-19T04:13:49;99042.34;;;14.13;100.00
11349;BME280;5729;43.570;27.826;2023-05-19T04:16:14;99048.97;;;14.23;100.00
11349;BME280;5729;43.570;27.826;2023-05-19T04:18:40;99047.81;;;14.20;100.00
11349;BME280;5729;43.570;27.826;2023-05-19T04:21:06;99042.84;;;14.33;100.00
11349;BME280;5729;43.570;27.826;2023-05-19T04:23:32;99044.00;;;14.39;100.00
11349;BME280;5729;43.570;27.826;2023-05-19T04:25:58;99051.34;;;14.38;100.00
11349;BME280;5729;43.570;27.826;2023-05-19T04:28:25;99052.88;;;14.36;100.00
11349;BME280;5729;43.570;27.826;2023-05-19T04:30:51;99043.28;;;14.45;100.00
11349;BME280;5729;43.570;27.826;2023-05-19T04:33:16;99049.13;;;14.58;100.00
11349;BME280;5729;43.570;27.826;2023-05-19T04:35:44;99038.69;;;14.67;100.00
11349;BME280;5729;43.570;27.826;2023-05-19T04:38:10;99056.94;;;14.77;100.00
11349;BME280;5729;43.570;27.826;2023-05-19T04:40:36;99053.44;;;14.77;100.00
11349;BME280;5729;43.570;27.826;2023-05-19T04:43:01;99066.66;;;14.89;100.00
11349;BME280;5729;43.570;27.826;2023-05-19T04:45:27;99055.03;;;15.03;100.00
11349;BME280;5729;43.570;27.826;2023-05-19T04:47:53;99058.91;;;15.09;100.00
11349;BME280;5729;43.570;27.826;2023-05-19T04:50:22;99054.25;;;15.16;100.00
11349;BME280;5729;43.570;27.826;2023-05-19T04:52:48;99050.38;;;15.24;100.00
11349;BME280;5729;43.570;27.826;2023-05-19T04:55:13;99061.25;;;15.35;100.00
11349;BME280;5729;43.570;27.826;2023-05-19T04:57:39;99062.03;;;15.50;100.00
11349;BME280;5729;43.570;27.826;2023-05-19T05:00:05;99064.78;;;15.57;100.00
11349;BME280;5729;43.570;27.826;2023-05-19T05:02:32;99074.06;;;15.63;100.00
11349;BME280;5729;43.570;27.826;2023-05-19T05:04:58;99069.44;;;15.67;100.00
11349;BME280;5729;43.570;27.826;2023-05-19T05:07:24;99072.91;;;15.71;100.00
11349;BME280;5729;43.570;27.826;2023-05-19T05:09:50;99065.53;;;15.79;100.00
11349;BME280;5729;43.570;27.826;2023-05-19T05:12:17;99084.53;;;15.89;100.00
11349;BME280;5729;43.570;27.826;2023-05-19T05:14:43;99080.63;;;15.97;100.00
11349;BME280;5729;43.570;27.826;2023-05-19T05:17:11;99077.88;;;16.08;100.00
11349;BME280;5729;43.570;27.826;2023-05-19T05:19:38;99070.88;;;16.11;100.00
11349;BME280;5729;43.570;27.826;2023-05-19T05:22:03;99073.91;;;16.27;100.00
11349;BME280;5729;43.570;27.826;2023-05-19T05:24:30;99068.03;;;16.39;100.00
11349;BME280;5729;43.570;27.826;2023-05-19T05:26:56;99072.25;;;16.54;100.00
11349;BME280;5729;43.570;27.826;2023-05-19T05:29:23;99062.50;;;16.67;100.00
11349;BME280;5729;43.570;27.826;2023-05-19T05:31:48;99066.34;;;16.81;100.00
11349;BME280;5729;43.570;27.826;2023-05-19T05:34:14;99070.56;;;16.89;100.00
11349;BME280;5729;43.570;27.826;2023-05-19T05:36:39;99074.69;;;17.08;100.00
11349;BME280;5729;43.570;27.826;2023-05-19T05:39:05;99070.34;;;17.21;100.00
11349;BME280;5729;43.570;27.826;2023-05-19T05:41:30;99072.56;;;17.36;100.00
11349;BME280;5729;43.570;27.826;2023-05-19T05:44:02;99076.69;;;17.52;100.00
11349;BME280;5729;43.570;27.826;2023-05-19T05:46:28;99080.16;;;17.59;100.00
11349;BME280;5729;43.570;27.826;2023-05-19T05:48:54;99080.81;;;17.74;100.00
11349;BME280;5729;43.570;27.826;2023-05-19T05:51:21;99092.75;;;17.87;100.00
11349;BME280;5729;43.570;27.826;2023-05-19T05:53:52;99088.78;;;17.95;100.00
11349;BME280;5729;43.570;27.826;2023-05-19T05:56:19;99082.84;;;18.04;100.00
11349;BME280;5729;43.570;27.826;2023-05-19T05:58:45;99088.91;;;18.19;100.00
11349;BME280;5729;43.570;27.826;2023-05-19T06:01:10;99094.31;;;18.26;100.00
11349;BME280;5729;43.570;27.826;2023-05-19T06:03:38;99093.06;;;18.30;100.00
11349;BME280;5729;43.570;27.826;2023-05-19T06:06:04;99092.91;;;18.44;100.00
11349;BME280;5729;43.570;27.826;2023-05-19T06:08:30;99077.94;;;18.60;100.00
11349;BME280;5729;43.570;27.826;2023-05-19T06:10:55;99083.16;;;18.77;100.00
11349;BME280;5729;43.570;27.826;2023-05-19T06:13:22;99089.25;;;18.89;100.00
11349;BME280;5729;43.570;27.826;2023-05-19T06:15:49;99080.97;;;18.96;100.00
11349;BME280;5729;43.570;27.826;2023-05-19T06:18:15;99078.50;;;19.05;100.00
11349;BME280;5729;43.570;27.826;2023-05-19T06:20:40;99082.53;;;19.20;100.00
11349;BME280;5729;43.570;27.826;2023-05-19T06:23:06;99073.06;;;19.28;100.00
11349;BME280;5729;43.570;27.826;2023-05-19T06:25:31;99080.31;;;19.38;100.00
11349;BME280;5729;43.570;27.826;2023-05-19T06:27:57;99091.38;;;19.54;100.00
11349;BME280;5729;43.570;27.826;2023-05-19T06:30:22;99085.81;;;19.62;100.00
11349;BME280;5729;43.570;27.826;2023-05-19T06:32:47;99087.19;;;19.73;100.00
11349;BME280;5729;43.570;27.826;2023-05-19T06:35:13;99088.53;;;19.85;100.00
11349;BME280;5729;43.570;27.826;2023-05-19T06:37:38;99091.50;;;19.94;100.00
11349;BME280;5729;43.570;27.826;2023-05-19T06:40:04;99091.28;;;20.05;100.00
11349;BME280;5729;43.570;27.826;2023-05-19T06:42:31;99094.59;;;20.16;100.00
11349;BME280;5729;43.570;27.826;2023-05-19T06:44:56;99111.53;;;20.30;100.00
11349;BME280;5729;43.570;27.826;2023-05-19T06:47:22;99099.22;;;20.42;100.00
11349;BME280;5729;43.570;27.826;2023-05-19T06:49:47;99098.66;;;20.67;100.00
11349;BME280;5729;43.570;27.826;2023-05-19T06:52:20;99091.56;;;21.06;100.00
11349;BME280;5729;43.570;27.826;2023-05-19T06:54:45;99107.97;;;21.25;100.00
11349;BME280;5729;43.570;27.826;2023-05-19T06:57:11;99104.31;;;21.32;100.00
11349;BME280;5729;43.570;27.826;2023-05-19T06:59:36;99109.69;;;21.35;98.25
11349;BME280;5729;43.570;27.826;2023-05-19T07:02:05;99096.22;;;21.09;97.02
11349;BME280;5729;43.570;27.826;2023-05-19T07:04:30;99107.00;;;21.16;95.56
11349;BME280;5729;43.570;27.826;2023-05-19T07:06:56;99110.72;;;21.25;95.74
11349;BME280;5729;43.570;27.826;2023-05-19T07:09:23;99109.53;;;21.43;95.70
11349;BME280;5729;43.570;27.826;2023-05-19T07:11:48;99105.50;;;21.47;96.04
11349;BME280;5729;43.570;27.826;2023-05-19T07:14:13;99109.63;;;21.55;94.37
11349;BME280;5729;43.570;27.826;2023-05-19T07:16:39;99112.59;;;21.61;91.81
11349;BME280;5729;43.570;27.826;2023-05-19T07:19:05;99096.16;;;21.61;89.86
11349;BME280;5729;43.570;27.826;2023-05-19T07:21:30;99108.59;;;21.65;90.60
11349;BME280;5729;43.570;27.826;2023-05-19T07:23:55;99099.75;;;21.74;90.15
11349;BME280;5729;43.570;27.826;2023-05-19T07:26:21;99102.28;;;21.81;88.16
11349;BME280;5729;43.570;27.826;2023-05-19T07:28:46;99102.53;;;22.03;87.29
11349;BME280;5729;43.570;27.826;2023-05-19T07:31:12;99109.19;;;22.18;86.06
11349;BME280;5729;43.570;27.826;2023-05-19T07:33:37;99099.13;;;22.28;85.51
11349;BME280;5729;43.570;27.826;2023-05-19T07:36:03;99109.72;;;22.42;84.50
11349;BME280;5729;43.570;27.826;2023-05-19T07:38:29;99103.38;;;22.58;83.14
11349;BME280;5729;43.570;27.826;2023-05-19T07:40:58;99105.69;;;22.72;81.03
11349;BME280;5729;43.570;27.826;2023-05-19T07:43:24;99111.69;;;22.83;77.98
11349;BME280;5729;43.570;27.826;2023-05-19T07:45:49;99101.56;;;22.80;82.38
11349;BME280;5729;43.570;27.826;2023-05-19T07:48:15;99102.91;;;23.01;77.27
11349;BME280;5729;43.570;27.826;2023-05-19T07:50:42;99105.78;;;23.10;70.84
11349;BME280;5729;43.570;27.826;2023-05-19T07:53:08;99111.91;;;23.27;69.33
11349;BME280;5729;43.570;27.826;2023-05-19T07:55:33;99092.66;;;23.27;69.14
11349;BME280;5729;43.570;27.826;2023-05-19T07:57:59;99106.41;;;23.99;68.20
11349;BME280;5729;43.570;27.826;2023-05-19T08:00:24;99102.59;;;26.10;57.14
11349;BME280;5729;43.570;27.826;2023-05-19T08:02:50;99099.28;;;29.10;45.19
11349;BME280;5729;43.570;27.826;2023-05-19T08:05:17;99110.22;;;30.81;37.78
11349;BME280;5729;43.570;27.826;2023-05-19T08:07:42;99111.59;;;31.77;35.99
11349;BME280;5729;43.570;27.826;2023-05-19T08:10:08;99104.16;;;31.62;35.99
11349;BME280;5729;43.570;27.826;2023-05-19T08:12:33;99107.75;;;30.94;36.13
11349;BME280;5729;43.570;27.826;2023-05-19T08:14:59;99106.69;;;30.09;37.41
11349;BME280;5729;43.570;27.826;2023-05-19T08:17:24;99125.53;;;29.99;38.58
11349;BME280;5729;43.570;27.826;2023-05-19T08:19:50;99115.72;;;29.63;37.36
11349;BME280;5729;43.570;27.826;2023-05-19T08:22:15;99096.19;;;31.38;34.12
11349;BME280;5729;43.570;27.826;2023-05-19T08:24:40;99109.13;;;31.90;33.44
11349;BME280;5729;43.570;27.826;2023-05-19T08:27:07;99103.69;;;32.51;32.56
11349;BME280;5729;43.570;27.826;2023-05-19T08:29:33;99105.53;;;32.71;32.80
11349;BME280;5729;43.570;27.826;2023-05-19T08:31:58;99111.81;;;32.55;31.96
11349;BME280;5729;43.570;27.826;2023-05-19T08:34:24;99104.72;;;32.48;31.96
11349;BME280;5729;43.570;27.826;2023-05-19T08:36:50;99117.34;;;30.36;33.05
11349;BME280;5729;43.570;27.826;2023-05-19T08:39:15;99104.53;;;31.38;31.77
11349;BME280;5729;43.570;27.826;2023-05-19T08:41:43;99112.63;;;31.05;32.51
11349;BME280;5729;43.570;27.826;2023-05-19T08:44:08;99118.50;;;31.92;30.89
11349;BME280;5729;43.570;27.826;2023-05-19T08:46:34;99117.66;;;29.57;32.82
11349;BME280;5729;43.570;27.826;2023-05-19T08:49:10;99108.09;;;28.49;34.98
11349;BME280;5729;43.570;27.826;2023-05-19T08:51:43;99122.50;;;27.62;36.47
11349;BME280;5729;43.570;27.826;2023-05-19T08:54:16;99123.31;;;27.11;36.81
11349;BME280;5729;43.570;27.826;2023-05-19T08:56:43;99121.59;;;27.56;36.44
11349;BME280;5729;43.570;27.826;2023-05-19T08:59:11;99123.94;;;30.90;32.53
11349;BME280;5729;43.570;27.826;2023-05-19T09:01:38;99102.63;;;34.18;27.48
11349;BME280;5729;43.570;27.826;2023-05-19T09:04:04;99094.56;;;36.39;25.39
11349;BME280;5729;43.570;27.826;2023-05-19T09:06:30;99100.00;;;37.54;23.83
11349;BME280;5729;43.570;27.826;2023-05-19T09:08:56;99104.03;;;38.05;23.31
11349;BME280;5729;43.570;27.826;2023-05-19T09:11:22;99095.63;;;35.98;24.40
11349;BME280;5729;43.570;27.826;2023-05-19T09:13:47;99097.47;;;33.75;27.02
11349;BME280;5729;43.570;27.826;2023-05-19T09:16:14;99110.00;;;30.59;29.92
11349;BME280;5729;43.570;27.826;2023-05-19T09:18:52;99114.47;;;29.14;32.05
11349;BME280;5729;43.570;27.826;2023-05-19T09:21:19;99116.13;;;28.33;34.06
11349;BME280;5729;43.570;27.826;2023-05-19T09:23:45;99105.50;;;29.95;32.74
11349;BME280;5729;43.570;27.826;2023-05-19T09:26:11;99097.38;;;33.06;28.11
11349;BME280;5729;43.570;27.826;2023-05-19T09:28:39;99111.94;;;34.73;26.47
11349;BME280;5729;43.570;27.826;2023-05-19T09:31:08;99101.16;;;32.42;27.89
11349;BME280;5729;43.570;27.826;2023-05-19T09:33:38;99105.91;;;31.17;29.57
11349;BME280;5729;43.570;27.826;2023-05-19T09:36:05;99118.91;;;30.17;30.21
11349;BME280;5729;43.570;27.826;2023-05-19T09:38:33;99114.13;;;28.48;32.47
11349;BME280;5729;43.570;27.826;2023-05-19T09:41:00;99116.09;;;27.94;33.56
11349;BME280;5729;43.570;27.826;2023-05-19T09:43:29;99116.31;;;27.34;34.07
11349;BME280;5729;43.570;27.826;2023-05-19T09:46:09;99133.44;;;26.63;36.26
11349;BME280;5729;43.570;27.826;2023-05-19T09:48:38;99125.22;;;27.05;35.90
11349;BME280;5729;43.570;27.826;2023-05-19T09:51:04;99129.13;;;26.53;36.73
11349;BME280;5729;43.570;27.826;2023-05-19T09:53:33;99124.00;;;26.97;36.33
11349;BME280;5729;43.570;27.826;2023-05-19T09:56:00;99116.94;;;30.49;33.51
11349;BME280;5729;43.570;27.826;2023-05-19T09:58:30;99112.16;;;31.92;30.23
11349;BME280;5729;43.570;27.826;2023-05-19T10:00:55;99131.03;;;31.65;30.96
11349;BME280;5729;43.570;27.826;2023-05-19T10:03:21;99119.13;;;34.27;28.08
11349;BME280;5729;43.570;27.826;2023-05-19T10:05:49;99119.78;;;35.83;26.36
11349;BME280;5729;43.570;27.826;2023-05-19T10:08:15;99115.06;;;36.66;25.73
11349;BME280;5729;43.570;27.826;2023-05-19T10:10:44;99115.56;;;37.41;25.03
11349;BME280;5729;43.570;27.826;2023-05-19T10:13:11;99108.03;;;38.57;22.61
11349;BME280;5729;43.570;27.826;2023-05-19T10:15:37;99107.13;;;37.55;22.30
11349;BME280;5729;43.570;27.826;2023-05-19T10:18:05;99109.72;;;37.53;23.39
11349;BME280;5729;43.570;27.826;2023-05-19T10:20:33;99103.13;;;38.78;21.70
11349;BME280;5729;43.570;27.826;2023-05-19T10:22:59;99098.16;;;38.50;22.09
11349;BME280;5729;43.570;27.826;2023-05-19T10:25:24;99103.97;;;37.85;22.10
11349;BME280;5729;43.570;27.826;2023-05-19T10:28:10;99116.31;;;35.77;23.63
11349;BME280;5729;43.570;27.826;2023-05-19T10:30:40;99098.75;;;36.32;23.56
11349;BME280;5729;43.570;27.826;2023-05-19T10:33:09;99104.75;;;37.19;22.58
11349;BME280;5729;43.570;27.826;2023-05-19T10:46:29;99105.13;;;29.12;31.41
11349;BME280;5729;43.570;27.826;2023-05-19T10:48:55;99100.34;;;28.39;31.38
11349;BME280;5729;43.570;27.826;2023-05-19T10:51:29;99107.03;;;29.55;30.89
11349;BME280;5729;43.570;27.826;2023-05-19T10:53:55;99087.50;;;31.68;28.02
11349;BME280;5729;43.570;27.826;2023-05-19T10:56:32;99078.53;;;33.46;26.02
11349;BME280;5729;43.570;27.826;2023-05-19T10:59:00;99090.97;;;33.45;26.00
11349;BME280;5729;43.570;27.826;2023-05-19T11:01:33;99097.31;;;32.23;26.90
11349;BME280;5729;43.570;27.826;2023-05-19T11:04:07;99107.34;;;30.50;28.43
11349;BME280;5729;43.570;27.826;2023-05-19T11:06:36;99091.25;;;30.85;28.82
11349;BME280;5729;43.570;27.826;2023-05-19T11:14:15;99094.84;;;32.97;26.10
11349;BME280;5729;43.570;27.826;2023-05-19T11:16:44;99085.41;;;34.49;24.73
11349;BME280;5729;43.570;27.826;2023-05-19T11:19:33;99098.72;;;33.85;25.32
11349;BME280;5729;43.570;27.826;2023-05-19T11:22:12;99100.34;;;31.60;27.34
11349;BME280;5729;43.570;27.826;2023-05-19T11:24:45;99081.84;;;31.62;28.13
11349;BME280;5729;43.570;27.826;2023-05-19T11:27:33;99087.50;;;33.00;26.24
11349;BME280;5729;43.570;27.826;2023-05-19T11:30:09;99091.25;;;33.36;24.50
11349;BME280;5729;43.570;27.826;2023-05-19T11:32:42;99091.00;;;32.33;25.42
11349;BME280;5729;43.570;27.826;2023-05-19T11:35:11;99091.72;;;31.10;27.45
11349;BME280;5729;43.570;27.826;2023-05-19T11:37:37;99085.09;;;32.03;27.96
11349;BME280;5729;43.570;27.826;2023-05-19T11:40:05;99067.97;;;32.61;26.98
11349;BME280;5729;43.570;27.826;2023-05-19T11:42:34;99079.00;;;31.94;25.49
11349;BME280;5729;43.570;27.826;2023-05-19T11:45:00;99076.19;;;31.94;25.48
11349;BME280;5729;43.570;27.826;2023-05-19T11:47:26;99081.00;;;31.99;24.83
11349;BME280;5729;43.570;27.826;2023-05-19T11:49:53;99076.78;;;32.31;24.64
11349;BME280;5729;43.570;27.826;2023-05-19T11:52:24;99084.66;;;32.27;24.86
11349;BME280;5729;43.570;27.826;2023-05-19T11:54:50;99079.13;;;32.83;24.83
11349;BME280;5729;43.570;27.826;2023-05-19T11:57:16;99067.97;;;32.61;25.21
11349;BME280;5729;43.570;27.826;2023-05-19T11:59:42;99065.47;;;31.27;26.03
11349;BME280;5729;43.570;27.826;2023-05-19T12:02:21;99056.00;;;32.27;26.69
11349;BME280;5729;43.570;27.826;2023-05-19T12:04:49;99062.09;;;32.42;26.20
11349;BME280;5729;43.570;27.826;2023-05-19T12:07:15;99066.59;;;32.17;26.15
11349;BME280;5729;43.570;27.826;2023-05-19T12:09:44;99064.03;;;32.08;26.45
11349;BME280;5729;43.570;27.826;2023-05-19T12:12:18;99058.31;;;32.45;25.68
11349;BME280;5729;43.570;27.826;2023-05-19T12:14:51;99072.09;;;31.30;26.10
11349;BME280;5729;43.570;27.826;2023-05-19T12:17:19;99061.53;;;31.51;26.49
11349;BME280;5729;43.570;27.826;2023-05-19T12:19:46;99072.91;;;32.01;26.04
11349;BME280;5729;43.570;27.826;2023-05-19T12:22:13;99066.91;;;32.30;25.59
11349;BME280;5729;43.570;27.826;2023-05-19T12:24:41;99072.03;;;31.19;26.87
11349;BME280;5729;43.570;27.826;2023-05-19T12:27:22;99062.22;;;30.35;28.79
11349;BME280;5729;43.570;27.826;2023-05-19T12:29:55;99073.94;;;30.44;27.73
11349;BME280;5729;43.570;27.826;2023-05-19T12:32:25;99064.25;;;30.34;26.28
11349;BME280;5729;43.570;27.826;2023-05-19T12:34:52;99070.13;;;31.04;25.72
11349;BME280;5729;43.570;27.826;2023-05-19T12:37:18;99057.66;;;31.31;26.39
11349;BME280;5729;43.570;27.826;2023-05-19T12:39:44;99057.22;;;32.09;25.34
11349;BME280;5729;43.570;27.826;2023-05-19T12:42:10;99056.28;;;32.45;25.79
11349;BME280;5729;43.570;27.826;2023-05-19T12:44:52;99062.88;;;32.59;25.60
11349;BME280;5729;43.570;27.826;2023-05-19T12:47:19;99062.03;;;32.08;25.44
11349;BME280;5729;43.570;27.826;2023-05-19T12:50:02;99056.28;;;32.34;26.36
11349;BME280;5729;43.570;27.826;2023-05-19T12:52:32;99065.34;;;32.13;25.25
11349;BME280;5729;43.570;27.826;2023-05-19T12:57:35;99061.34;;;32.41;27.07
11349;BME280;5729;43.570;27.826;2023-05-19T13:02:55;99064.16;;;32.47;24.86
11349;BME280;5729;43.570;27.826;2023-05-19T13:05:21;99060.84;;;32.65;26.31
11349;BME280;5729;43.570;27.826;2023-05-19T13:07:57;99057.31;;;32.81;24.77
11349;BME280;5729;43.570;27.826;2023-05-19T13:10:23;99057.94;;;31.93;25.36
11349;BME280;5729;43.570;27.826;2023-05-19T13:12:52;99057.41;;;31.29;25.81
11349;BME280;5729;43.570;27.826;2023-05-19T13:15:18;99052.41;;;31.02;26.18
11349;BME280;5729;43.570;27.826;2023-05-19T13:17:44;99058.09;;;31.67;26.15
11349;BME280;5729;43.570;27.826;2023-05-19T13:20:11;99053.81;;;31.66;24.86
11349;BME280;5729;43.570;27.826;2023-05-19T13:22:37;99059.84;;;31.59;25.51
11349;BME280;5729;43.570;27.826;2023-05-19T13:25:03;99050.75;;;31.64;25.65
11349;BME280;5729;43.570;27.826;2023-05-19T13:27:28;99058.22;;;32.11;24.19
11349;BME280;5729;43.570;27.826;2023-05-19T13:29:54;99068.69;;;33.11;24.30
11349;BME280;5729;43.570;27.826;2023-05-19T13:32:19;99066.72;;;32.73;23.18
11349;BME280;5729;43.570;27.826;2023-05-19T13:34:44;99071.25;;;32.98;23.72